sensor_id;sensor_type;location;lat;lon;timestamp;P1;durP1;ratioP1;P2;durP2;ratioP2
10100;SDS011;5090;51.258;4.436;2023-09-19T00:01:10;13.13;;;2.50;;
10100;SDS011;5090;51.258;4.436;2023-09-19T00:03:38;13.97;;;2.50;;
10100;SDS011;5090;51.258;4.436;2023-09-19T00:06:07;7.47;;;2.30;;
10100;SDS011;5090;51.258;4.436;2023-09-19T00:08:35;10.63;;;2.23;;
10100;SDS011;5090;51.258;4.436;2023-09-19T00:11:03;12.60;;;2.23;;
10100;SDS011;5090;51.258;4.436;2023-09-19T00:13:32;12.30;;;2.00;;
10100;SDS011;5090;51.258;4.436;2023-09-19T00:15:59;8.27;;;2.70;;
10100;SDS011;5090;51.258;4.436;2023-09-19T00:18:29;6.37;;;2.13;;
10100;SDS011;5090;51.258;4.436;2023-09-19T00:20:57;8.10;;;1.80;;
10100;SDS011;5090;51.258;4.436;2023-09-19T00:23:25;8.83;;;1.77;;
10100;SDS011;5090;51.258;4.436;2023-09-19T00:25:53;6.87;;;1.97;;
10100;SDS011;5090;51.258;4.436;2023-09-19T00:28:21;9.40;;;1.97;;
10100;SDS011;5090;51.258;4.436;2023-09-19T00:30:49;7.27;;;1.80;;
10100;SDS011;5090;51.258;4.436;2023-09-19T00:33:18;8.07;;;2.10;;
10100;SDS011;5090;51.258;4.436;2023-09-19T00:35:48;7.23;;;1.90;;
10100;SDS011;5090;51.258;4.436;2023-09-19T00:38:16;6.47;;;1.90;;
10100;SDS011;5090;51.258;4.436;2023-09-19T00:40:44;9.30;;;2.10;;
10100;SDS011;5090;51.258;4.436;2023-09-19T00:43:12;8.53;;;1.90;;
10100;SDS011;5090;51.258;4.436;2023-09-19T00:45:43;10.37;;;1.80;;
10100;SDS011;5090;51.258;4.436;2023-09-19T00:48:10;10.40;;;2.33;;
10100;SDS011;5090;51.258;4.436;2023-09-19T00:50:39;8.73;;;2.30;;
10100;SDS011;5090;51.258;4.436;2023-09-19T00:53:07;10.57;;;1.70;;
10100;SDS011;5090;51.258;4.436;2023-09-19T00:55:36;7.43;;;2.03;;
10100;SDS011;5090;51.258;4.436;2023-09-19T00:58:03;14.27;;;2.20;;
10100;SDS011;5090;51.258;4.436;2023-09-19T01:00:32;11.13;;;2.33;;
10100;SDS011;5090;51.258;4.436;2023-09-19T01:03:00;8.80;;;2.10;;
10100;SDS011;5090;51.258;4.436;2023-09-19T01:05:30;9.77;;;2.10;;
10100;SDS011;5090;51.258;4.436;2023-09-19T01:07:59;9.17;;;2.10;;
10100;SDS011;5090;51.258;4.436;2023-09-19T01:10:27;6.20;;;1.93;;
10100;SDS011;5090;51.258;4.436;2023-09-19T01:15:38;6.73;;;1.83;;
10100;SDS011;5090;51.258;4.436;2023-09-19T01:20:45;12.17;;;2.40;;
10100;SDS011;5090;51.258;4.436;2023-09-19T01:23:23;10.20;;;1.97;;
10100;SDS011;5090;51.258;4.436;2023-09-19T01:30:57;10.43;;;1.83;;
10100;SDS011;5090;51.258;4.436;2023-09-19T01:33:25;10.67;;;2.27;;
10100;SDS011;5090;51.258;4.436;2023-09-19T01:35:54;7.03;;;1.90;;
10100;SDS011;5090;51.258;4.436;2023-09-19T01:38:22;5.73;;;1.53;;
10100;SDS011;5090;51.258;4.436;2023-09-19T01:40:54;6.63;;;1.80;;
10100;SDS011;5090;51.258;4.436;2023-09-19T01:43:20;6.90;;;1.90;;
10100;SDS011;5090;51.258;4.436;2023-09-19T01:45:51;7.83;;;1.87;;
10100;SDS011;5090;51.258;4.436;2023-09-19T01:48:54;9.03;;;2.50;;
10100;SDS011;5090;51.258;4.436;2023-09-19T01:51:05;7.77;;;1.83;;
10100;SDS011;5090;51.258;4.436;2023-09-19T01:53:33;13.13;;;2.70;;
10100;SDS011;5090;51.258;4.436;2023-09-19T01:56:01;14.30;;;2.40;;
10100;SDS011;5090;51.258;4.436;2023-09-19T01:58:33;6.90;;;1.80;;
10100;SDS011;5090;51.258;4.436;2023-09-19T02:00:58;7.80;;;1.80;;
10100;SDS011;5090;51.258;4.436;2023-09-19T02:03:27;10.67;;;2.30;;
10100;SDS011;5090;51.258;4.436;2023-09-19T02:05:55;9.90;;;2.57;;
10100;SDS011;5090;51.258;4.436;2023-09-19T02:08:23;12.30;;;2.20;;
10100;SDS011;5090;51.258;4.436;2023-09-19T02:10:51;15.87;;;2.33;;
10100;SDS011;5090;51.258;4.436;2023-09-19T02:13:20;9.27;;;1.90;;
10100;SDS011;5090;51.258;4.436;2023-09-19T02:15:48;10.23;;;1.83;;
10100;SDS011;5090;51.258;4.436;2023-09-19T02:18:16;11.33;;;2.27;;
10100;SDS011;5090;51.258;4.436;2023-09-19T02:20:44;15.60;;;2.10;;
10100;SDS011;5090;51.258;4.436;2023-09-19T02:23:12;12.73;;;2.57;;
10100;SDS011;5090;51.258;4.436;2023-09-19T02:25:40;10.20;;;1.97;;
10100;SDS011;5090;51.258;4.436;2023-09-19T02:28:09;10.33;;;2.13;;
10100;SDS011;5090;51.258;4.436;2023-09-19T02:30:37;8.90;;;2.00;;
10100;SDS011;5090;51.258;4.436;2023-09-19T02:33:05;10.40;;;2.80;;
10100;SDS011;5090;51.258;4.436;2023-09-19T02:35:33;13.17;;;2.60;;
10100;SDS011;5090;51.258;4.436;2023-09-19T02:38:01;14.83;;;2.53;;
10100;SDS011;5090;51.258;4.436;2023-09-19T02:40:30;12.10;;;2.23;;
10100;SDS011;5090;51.258;4.436;2023-09-19T02:42:58;8.97;;;2.40;;
10100;SDS011;5090;51.258;4.436;2023-09-19T02:45:26;10.80;;;2.60;;
10100;SDS011;5090;51.258;4.436;2023-09-19T02:47:54;10.00;;;2.17;;
10100;SDS011;5090;51.258;4.436;2023-09-19T02:50:22;11.20;;;2.90;;
10100;SDS011;5090;51.258;4.436;2023-09-19T02:52:51;12.50;;;1.80;;
10100;SDS011;5090;51.258;4.436;2023-09-19T02:55:19;9.27;;;2.00;;
10100;SDS011;5090;51.258;4.436;2023-09-19T02:57:48;11.57;;;2.63;;
10100;SDS011;5090;51.258;4.436;2023-09-19T03:00:16;8.67;;;2.07;;
10100;SDS011;5090;51.258;4.436;2023-09-19T03:02:44;13.87;;;2.83;;
10100;SDS011;5090;51.258;4.436;2023-09-19T03:05:12;14.07;;;2.40;;
10100;SDS011;5090;51.258;4.436;2023-09-19T03:07:40;8.73;;;2.30;;
10100;SDS011;5090;51.258;4.436;2023-09-19T03:10:08;10.27;;;1.90;;
10100;SDS011;5090;51.258;4.436;2023-09-19T03:12:37;10.27;;;1.70;;
10100;SDS011;5090;51.258;4.436;2023-09-19T03:15:05;11.20;;;2.80;;
10100;SDS011;5090;51.258;4.436;2023-09-19T03:17:33;8.50;;;2.33;;
10100;SDS011;5090;51.258;4.436;2023-09-19T03:20:02;7.70;;;2.23;;
10100;SDS011;5090;51.258;4.436;2023-09-19T03:22:30;8.67;;;2.63;;
10100;SDS011;5090;51.258;4.436;2023-09-19T03:24:58;9.70;;;1.90;;
10100;SDS011;5090;51.258;4.436;2023-09-19T03:27:26;10.43;;;2.10;;
10100;SDS011;5090;51.258;4.436;2023-09-19T03:29:54;11.97;;;2.27;;
10100;SDS011;5090;51.258;4.436;2023-09-19T03:32:22;11.13;;;1.90;;
10100;SDS011;5090;51.258;4.436;2023-09-19T03:34:51;9.27;;;2.00;;
10100;SDS011;5090;51.258;4.436;2023-09-19T03:37:19;11.30;;;2.23;;
10100;SDS011;5090;51.258;4.436;2023-09-19T03:39:47;10.53;;;2.70;;
10100;SDS011;5090;51.258;4.436;2023-09-19T03:42:15;12.03;;;2.83;;
10100;SDS011;5090;51.258;4.436;2023-09-19T03:44:43;12.17;;;2.23;;
10100;SDS011;5090;51.258;4.436;2023-09-19T03:47:12;7.90;;;2.07;;
10100;SDS011;5090;51.258;4.436;2023-09-19T03:49:40;8.83;;;2.20;;
10100;SDS011;5090;51.258;4.436;2023-09-19T03:52:08;12.07;;;2.47;;
10100;SDS011;5090;51.258;4.436;2023-09-19T03:54:36;9.53;;;2.30;;
10100;SDS011;5090;51.258;4.436;2023-09-19T03:57:04;6.90;;;1.77;;
10100;SDS011;5090;51.258;4.436;2023-09-19T03:59:33;10.70;;;2.13;;
10100;SDS011;5090;51.258;4.436;2023-09-19T04:02:01;8.47;;;2.63;;
10100;SDS011;5090;51.258;4.436;2023-09-19T04:04:29;9.30;;;2.20;;
10100;SDS011;5090;51.258;4.436;2023-09-19T04:06:57;16.37;;;2.40;;
10100;SDS011;5090;51.258;4.436;2023-09-19T04:09:25;7.40;;;1.50;;
10100;SDS011;5090;51.258;4.436;2023-09-19T04:11:54;9.63;;;2.33;;
10100;SDS011;5090;51.258;4.436;2023-09-19T04:14:22;12.60;;;2.40;;
10100;SDS011;5090;51.258;4.436;2023-09-19T04:16:50;9.33;;;2.10;;
10100;SDS011;5090;51.258;4.436;2023-09-19T04:19:18;8.33;;;2.03;;
10100;SDS011;5090;51.258;4.436;2023-09-19T04:21:46;10.63;;;2.30;;
10100;SDS011;5090;51.258;4.436;2023-09-19T04:24:14;11.63;;;2.93;;
10100;SDS011;5090;51.258;4.436;2023-09-19T04:26:43;10.77;;;2.77;;
10100;SDS011;5090;51.258;4.436;2023-09-19T04:29:11;10.87;;;2.43;;
10100;SDS011;5090;51.258;4.436;2023-09-19T04:31:39;14.47;;;3.10;;
10100;SDS011;5090;51.258;4.436;2023-09-19T04:34:07;14.10;;;2.00;;
10100;SDS011;5090;51.258;4.436;2023-09-19T04:36:35;10.10;;;2.07;;
10100;SDS011;5090;51.258;4.436;2023-09-19T04:39:04;9.07;;;2.63;;
10100;SDS011;5090;51.258;4.436;2023-09-19T04:41:33;10.33;;;2.33;;
10100;SDS011;5090;51.258;4.436;2023-09-19T04:44:02;13.33;;;2.73;;
10100;SDS011;5090;51.258;4.436;2023-09-19T04:46:30;7.73;;;2.60;;
10100;SDS011;5090;51.258;4.436;2023-09-19T04:48:58;7.97;;;2.30;;
10100;SDS011;5090;51.258;4.436;2023-09-19T04:51:26;13.97;;;2.50;;
10100;SDS011;5090;51.258;4.436;2023-09-19T04:53:54;10.50;;;2.80;;
10100;SDS011;5090;51.258;4.436;2023-09-19T04:56:23;8.67;;;2.40;;
10100;SDS011;5090;51.258;4.436;2023-09-19T04:58:51;20.27;;;2.80;;
10100;SDS011;5090;51.258;4.436;2023-09-19T05:01:19;12.30;;;3.27;;
10100;SDS011;5090;51.258;4.436;2023-09-19T05:03:47;14.40;;;2.40;;
10100;SDS011;5090;51.258;4.436;2023-09-19T05:06:15;18.07;;;2.53;;
10100;SDS011;5090;51.258;4.436;2023-09-19T05:08:44;10.47;;;2.80;;
10100;SDS011;5090;51.258;4.436;2023-09-19T05:11:12;16.43;;;2.77;;
10100;SDS011;5090;51.258;4.436;2023-09-19T05:13:40;13.43;;;2.97;;
10100;SDS011;5090;51.258;4.436;2023-09-19T05:16:08;13.83;;;3.33;;
10100;SDS011;5090;51.258;4.436;2023-09-19T05:18:36;17.83;;;2.30;;
10100;SDS011;5090;51.258;4.436;2023-09-19T05:21:05;8.93;;;2.43;;
10100;SDS011;5090;51.258;4.436;2023-09-19T05:23:33;15.23;;;2.97;;
10100;SDS011;5090;51.258;4.436;2023-09-19T05:26:01;13.00;;;2.63;;
10100;SDS011;5090;51.258;4.436;2023-09-19T05:28:29;10.37;;;2.50;;
10100;SDS011;5090;51.258;4.436;2023-09-19T05:31:00;16.67;;;2.13;;
10100;SDS011;5090;51.258;4.436;2023-09-19T05:33:26;10.40;;;2.90;;
10100;SDS011;5090;51.258;4.436;2023-09-19T05:35:54;11.17;;;2.77;;
10100;SDS011;5090;51.258;4.436;2023-09-19T05:38:22;10.20;;;2.50;;
10100;SDS011;5090;51.258;4.436;2023-09-19T05:40:50;10.27;;;2.47;;
10100;SDS011;5090;51.258;4.436;2023-09-19T05:43:19;17.00;;;2.50;;
10100;SDS011;5090;51.258;4.436;2023-09-19T05:45:47;11.07;;;2.70;;
10100;SDS011;5090;51.258;4.436;2023-09-19T05:48:15;20.97;;;3.10;;
10100;SDS011;5090;51.258;4.436;2023-09-19T05:50:44;13.07;;;2.97;;
10100;SDS011;5090;51.258;4.436;2023-09-19T05:53:14;15.67;;;2.87;;
10100;SDS011;5090;51.258;4.436;2023-09-19T05:55:42;16.67;;;2.67;;
10100;SDS011;5090;51.258;4.436;2023-09-19T05:58:10;15.50;;;2.60;;
10100;SDS011;5090;51.258;4.436;2023-09-19T06:00:38;16.43;;;2.53;;
10100;SDS011;5090;51.258;4.436;2023-09-19T06:03:07;13.90;;;2.17;;
10100;SDS011;5090;51.258;4.436;2023-09-19T06:05:35;11.70;;;3.00;;
10100;SDS011;5090;51.258;4.436;2023-09-19T06:08:03;11.47;;;2.03;;
10100;SDS011;5090;51.258;4.436;2023-09-19T06:10:32;15.43;;;3.37;;
10100;SDS011;5090;51.258;4.436;2023-09-19T06:13:00;9.97;;;2.57;;
10100;SDS011;5090;51.258;4.436;2023-09-19T06:15:28;14.53;;;2.40;;
10100;SDS011;5090;51.258;4.436;2023-09-19T06:17:56;14.80;;;3.10;;
10100;SDS011;5090;51.258;4.436;2023-09-19T06:20:25;17.47;;;2.47;;
10100;SDS011;5090;51.258;4.436;2023-09-19T06:22:53;20.40;;;3.73;;
10100;SDS011;5090;51.258;4.436;2023-09-19T06:25:21;11.57;;;2.40;;
10100;SDS011;5090;51.258;4.436;2023-09-19T06:27:51;13.23;;;3.10;;
10100;SDS011;5090;51.258;4.436;2023-09-19T06:30:19;16.63;;;2.97;;
10100;SDS011;5090;51.258;4.436;2023-09-19T06:32:47;19.13;;;3.67;;
10100;SDS011;5090;51.258;4.436;2023-09-19T06:35:15;14.23;;;2.50;;
10100;SDS011;5090;51.258;4.436;2023-09-19T06:37:43;13.70;;;3.00;;
10100;SDS011;5090;51.258;4.436;2023-09-19T06:40:12;11.87;;;2.40;;
10100;SDS011;5090;51.258;4.436;2023-09-19T06:42:42;12.10;;;2.53;;
10100;SDS011;5090;51.258;4.436;2023-09-19T06:45:10;12.33;;;3.33;;
10100;SDS011;5090;51.258;4.436;2023-09-19T06:47:39;14.13;;;2.77;;
10100;SDS011;5090;51.258;4.436;2023-09-19T06:50:07;13.27;;;2.40;;
10100;SDS011;5090;51.258;4.436;2023-09-19T06:52:35;13.43;;;2.27;;
10100;SDS011;5090;51.258;4.436;2023-09-19T06:55:03;9.43;;;2.60;;
10100;SDS011;5090;51.258;4.436;2023-09-19T06:57:32;12.40;;;3.17;;
10100;SDS011;5090;51.258;4.436;2023-09-19T07:00:00;12.77;;;2.83;;
10100;SDS011;5090;51.258;4.436;2023-09-19T07:02:28;16.17;;;2.40;;
10100;SDS011;5090;51.258;4.436;2023-09-19T07:04:56;12.90;;;2.17;;
10100;SDS011;5090;51.258;4.436;2023-09-19T07:07:24;11.00;;;2.53;;
10100;SDS011;5090;51.258;4.436;2023-09-19T07:09:53;14.07;;;2.80;;
10100;SDS011;5090;51.258;4.436;2023-09-19T07:12:21;10.63;;;2.50;;
10100;SDS011;5090;51.258;4.436;2023-09-19T07:14:49;10.07;;;2.20;;
10100;SDS011;5090;51.258;4.436;2023-09-19T07:17:17;10.23;;;2.23;;
10100;SDS011;5090;51.258;4.436;2023-09-19T07:19:45;17.90;;;2.27;;
10100;SDS011;5090;51.258;4.436;2023-09-19T07:22:14;10.50;;;3.00;;
10100;SDS011;5090;51.258;4.436;2023-09-19T07:24:42;10.20;;;2.17;;
10100;SDS011;5090;51.258;4.436;2023-09-19T07:27:10;10.67;;;2.23;;
10100;SDS011;5090;51.258;4.436;2023-09-19T07:29:38;13.73;;;2.50;;
10100;SDS011;5090;51.258;4.436;2023-09-19T07:32:07;14.10;;;2.67;;
10100;SDS011;5090;51.258;4.436;2023-09-19T07:34:35;12.77;;;2.70;;
10100;SDS011;5090;51.258;4.436;2023-09-19T07:37:03;13.43;;;2.80;;
10100;SDS011;5090;51.258;4.436;2023-09-19T07:39:31;19.97;;;3.43;;
10100;SDS011;5090;51.258;4.436;2023-09-19T07:41:59;16.47;;;2.37;;
10100;SDS011;5090;51.258;4.436;2023-09-19T07:44:28;9.47;;;2.17;;
10100;SDS011;5090;51.258;4.436;2023-09-19T07:46:56;10.00;;;2.43;;
10100;SDS011;5090;51.258;4.436;2023-09-19T07:49:24;11.13;;;1.80;;
10100;SDS011;5090;51.258;4.436;2023-09-19T07:51:52;13.30;;;2.85;;
10100;SDS011;5090;51.258;4.436;2023-09-19T07:54:20;14.43;;;2.60;;
10100;SDS011;5090;51.258;4.436;2023-09-19T07:56:49;9.10;;;2.03;;
10100;SDS011;5090;51.258;4.436;2023-09-19T07:59:17;15.10;;;2.70;;
10100;SDS011;5090;51.258;4.436;2023-09-19T08:01:45;8.13;;;2.03;;
10100;SDS011;5090;51.258;4.436;2023-09-19T08:04:13;7.78;;;2.40;;
10100;SDS011;5090;51.258;4.436;2023-09-19T08:06:41;14.55;;;3.08;;
10100;SDS011;5090;51.258;4.436;2023-09-19T08:09:09;11.35;;;2.45;;
10100;SDS011;5090;51.258;4.436;2023-09-19T08:11:38;8.15;;;1.95;;
10100;SDS011;5090;51.258;4.436;2023-09-19T08:14:06;9.80;;;2.10;;
10100;SDS011;5090;51.258;4.436;2023-09-19T08:16:34;8.57;;;2.30;;
10100;SDS011;5090;51.258;4.436;2023-09-19T08:19:02;7.35;;;2.35;;
10100;SDS011;5090;51.258;4.436;2023-09-19T08:21:30;9.40;;;2.10;;
10100;SDS011;5090;51.258;4.436;2023-09-19T08:23:59;7.55;;;1.98;;
10100;SDS011;5090;51.258;4.436;2023-09-19T08:26:27;11.23;;;2.30;;
10100;SDS011;5090;51.258;4.436;2023-09-19T08:28:55;11.93;;;2.20;;
10100;SDS011;5090;51.258;4.436;2023-09-19T08:31:23;14.73;;;3.03;;
10100;SDS011;5090;51.258;4.436;2023-09-19T08:33:51;10.10;;;2.42;;
10100;SDS011;5090;51.258;4.436;2023-09-19T08:36:20;11.77;;;2.50;;
10100;SDS011;5090;51.258;4.436;2023-09-19T08:38:49;10.80;;;2.45;;
10100;SDS011;5090;51.258;4.436;2023-09-19T08:41:17;14.50;;;3.03;;
10100;SDS011;5090;51.258;4.436;2023-09-19T08:43:45;9.15;;;2.35;;
10100;SDS011;5090;51.258;4.436;2023-09-19T08:46:15;11.63;;;2.80;;
10100;SDS011;5090;51.258;4.436;2023-09-19T08:48:46;14.18;;;3.15;;
10100;SDS011;5090;51.258;4.436;2023-09-19T08:51:18;11.02;;;2.00;;
10100;SDS011;5090;51.258;4.436;2023-09-19T08:56:30;10.73;;;2.40;;
10100;SDS011;5090;51.258;4.436;2023-09-19T08:59:00;9.30;;;2.08;;
10100;SDS011;5090;51.258;4.436;2023-09-19T09:01:28;10.70;;;2.60;;
10100;SDS011;5090;51.258;4.436;2023-09-19T09:03:56;12.70;;;2.62;;
10100;SDS011;5090;51.258;4.436;2023-09-19T09:06:25;11.90;;;2.33;;
10100;SDS011;5090;51.258;4.436;2023-09-19T09:08:52;12.68;;;2.75;;
10100;SDS011;5090;51.258;4.436;2023-09-19T09:11:21;12.90;;;2.17;;
10100;SDS011;5090;51.258;4.436;2023-09-19T09:13:49;10.48;;;2.00;;
10100;SDS011;5090;51.258;4.436;2023-09-19T09:16:17;13.98;;;2.60;;
10100;SDS011;5090;51.258;4.436;2023-09-19T09:18:45;12.80;;;2.42;;
10100;SDS011;5090;51.258;4.436;2023-09-19T09:21:13;12.48;;;1.95;;
10100;SDS011;5090;51.258;4.436;2023-09-19T09:23:42;10.00;;;2.15;;
10100;SDS011;5090;51.258;4.436;2023-09-19T09:26:10;7.82;;;1.67;;
10100;SDS011;5090;51.258;4.436;2023-09-19T09:28:44;7.30;;;2.05;;
10100;SDS011;5090;51.258;4.436;2023-09-19T09:31:06;9.85;;;1.77;;
10100;SDS011;5090;51.258;4.436;2023-09-19T09:33:36;10.05;;;2.65;;
10100;SDS011;5090;51.258;4.436;2023-09-19T09:36:04;6.80;;;1.92;;
10100;SDS011;5090;51.258;4.436;2023-09-19T09:38:47;6.75;;;2.00;;
10100;SDS011;5090;51.258;4.436;2023-09-19T09:41:15;9.50;;;1.98;;
10100;SDS011;5090;51.258;4.436;2023-09-19T09:43:43;10.90;;;2.50;;
10100;SDS011;5090;51.258;4.436;2023-09-19T09:46:15;8.27;;;1.77;;
10100;SDS011;5090;51.258;4.436;2023-09-19T09:49:03;7.15;;;1.95;;
10100;SDS011;5090;51.258;4.436;2023-09-19T09:51:37;7.18;;;1.77;;
10100;SDS011;5090;51.258;4.436;2023-09-19T09:54:12;12.02;;;1.60;;
10100;SDS011;5090;51.258;4.436;2023-09-19T09:56:59;8.18;;;1.87;;
10100;SDS011;5090;51.258;4.436;2023-09-19T10:02:03;8.25;;;1.80;;
10100;SDS011;5090;51.258;4.436;2023-09-19T10:04:31;10.65;;;2.20;;
10100;SDS011;5090;51.258;4.436;2023-09-19T10:06:59;12.65;;;2.17;;
10100;SDS011;5090;51.258;4.436;2023-09-19T10:09:27;7.03;;;2.40;;
10100;SDS011;5090;51.258;4.436;2023-09-19T10:12:00;6.97;;;1.33;;
10100;SDS011;5090;51.258;4.436;2023-09-19T10:14:29;6.05;;;1.95;;
10100;SDS011;5090;51.258;4.436;2023-09-19T10:16:55;7.28;;;1.62;;
10100;SDS011;5090;51.258;4.436;2023-09-19T10:19:29;8.18;;;1.55;;
10100;SDS011;5090;51.258;4.436;2023-09-19T10:21:53;12.15;;;1.73;;
10100;SDS011;5090;51.258;4.436;2023-09-19T10:24:20;8.35;;;2.08;;
10100;SDS011;5090;51.258;4.436;2023-09-19T10:26:48;4.72;;;1.25;;
10100;SDS011;5090;51.258;4.436;2023-09-19T10:29:17;4.95;;;1.30;;
10100;SDS011;5090;51.258;4.436;2023-09-19T10:31:46;4.32;;;1.05;;
10100;SDS011;5090;51.258;4.436;2023-09-19T10:34:14;6.43;;;1.60;;
10100;SDS011;5090;51.258;4.436;2023-09-19T10:36:44;3.92;;;1.30;;
10100;SDS011;5090;51.258;4.436;2023-09-19T10:39:12;6.07;;;1.35;;
10100;SDS011;5090;51.258;4.436;2023-09-19T10:41:39;6.12;;;1.37;;
10100;SDS011;5090;51.258;4.436;2023-09-19T10:44:07;7.50;;;1.50;;
10100;SDS011;5090;51.258;4.436;2023-09-19T10:46:36;5.57;;;0.95;;
10100;SDS011;5090;51.258;4.436;2023-09-19T10:49:04;5.90;;;1.45;;
10100;SDS011;5090;51.258;4.436;2023-09-19T10:51:37;6.25;;;1.50;;
10100;SDS011;5090;51.258;4.436;2023-09-19T10:54:04;6.95;;;1.62;;
10100;SDS011;5090;51.258;4.436;2023-09-19T10:56:30;6.45;;;1.35;;
10100;SDS011;5090;51.258;4.436;2023-09-19T11:06:41;6.47;;;1.50;;
10100;SDS011;5090;51.258;4.436;2023-09-19T11:09:09;4.78;;;1.30;;
10100;SDS011;5090;51.258;4.436;2023-09-19T11:11:49;5.90;;;1.25;;
10100;SDS011;5090;51.258;4.436;2023-09-19T11:22:22;7.65;;;1.30;;
10100;SDS011;5090;51.258;4.436;2023-09-19T11:24:50;5.35;;;1.10;;
10100;SDS011;5090;51.258;4.436;2023-09-19T11:27:19;7.30;;;0.80;;
10100;SDS011;5090;51.258;4.436;2023-09-19T11:29:47;8.80;;;1.52;;
10100;SDS011;5090;51.258;4.436;2023-09-19T11:32:15;2.60;;;0.60;;
10100;SDS011;5090;51.258;4.436;2023-09-19T11:34:44;6.32;;;1.20;;
10100;SDS011;5090;51.258;4.436;2023-09-19T11:45:04;7.60;;;1.10;;
10100;SDS011;5090;51.258;4.436;2023-09-19T11:47:32;4.62;;;0.80;;
10100;SDS011;5090;51.258;4.436;2023-09-19T11:50:01;5.07;;;1.00;;
10100;SDS011;5090;51.258;4.436;2023-09-19T11:52:29;3.42;;;0.90;;
10100;SDS011;5090;51.258;4.436;2023-09-19T11:54:57;4.50;;;0.75;;
10100;SDS011;5090;51.258;4.436;2023-09-19T11:57:25;5.80;;;0.95;;
10100;SDS011;5090;51.258;4.436;2023-09-19T11:59:53;5.10;;;1.40;;
10100;SDS011;5090;51.258;4.436;2023-09-19T12:02:34;7.00;;;1.20;;
10100;SDS011;5090;51.258;4.436;2023-09-19T12:04:56;3.87;;;0.80;;
10100;SDS011;5090;51.258;4.436;2023-09-19T12:07:24;5.18;;;0.77;;
10100;SDS011;5090;51.258;4.436;2023-09-19T12:10:02;5.12;;;0.98;;
10100;SDS011;5090;51.258;4.436;2023-09-19T12:12:24;4.47;;;1.85;;
10100;SDS011;5090;51.258;4.436;2023-09-19T12:14:55;8.00;;;0.88;;
10100;SDS011;5090;51.258;4.436;2023-09-19T12:17:23;8.05;;;1.00;;
10100;SDS011;5090;51.258;4.436;2023-09-19T12:19:52;3.37;;;0.60;;
10100;SDS011;5090;51.258;4.436;2023-09-19T12:22:20;5.53;;;1.00;;
10100;SDS011;5090;51.258;4.436;2023-09-19T12:24:48;3.67;;;0.80;;
10100;SDS011;5090;51.258;4.436;2023-09-19T12:27:16;7.80;;;0.60;;
10100;SDS011;5090;51.258;4.436;2023-09-19T12:29:46;4.90;;;0.70;;
10100;SDS011;5090;51.258;4.436;2023-09-19T12:32:13;5.10;;;0.70;;
10100;SDS011;5090;51.258;4.436;2023-09-19T12:34:41;6.68;;;0.90;;
10100;SDS011;5090;51.258;4.436;2023-09-19T12:37:11;3.00;;;0.75;;
10100;SDS011;5090;51.258;4.436;2023-09-19T12:39:40;11.57;;;1.10;;
10100;SDS011;5090;51.258;4.436;2023-09-19T12:42:09;8.15;;;0.98;;
10100;SDS011;5090;51.258;4.436;2023-09-19T12:44:37;4.97;;;1.00;;
10100;SDS011;5090;51.258;4.436;2023-09-19T12:47:08;5.28;;;1.05;;
10100;SDS011;5090;51.258;4.436;2023-09-19T12:49:36;6.22;;;1.15;;
10100;SDS011;5090;51.258;4.436;2023-09-19T12:52:04;6.97;;;1.15;;
10100;SDS011;5090;51.258;4.436;2023-09-19T12:54:39;7.00;;;1.15;;
10100;SDS011;5090;51.258;4.436;2023-09-19T12:57:06;10.02;;;1.20;;
10100;SDS011;5090;51.258;4.436;2023-09-19T12:59:34;5.75;;;1.00;;
10100;SDS011;5090;51.258;4.436;2023-09-19T13:02:03;3.67;;;1.00;;
10100;SDS011;5090;51.258;4.436;2023-09-19T13:04:31;4.00;;;0.90;;
10100;SDS011;5090;51.258;4.436;2023-09-19T13:06:59;6.18;;;1.17;;
10100;SDS011;5090;51.258;4.436;2023-09-19T13:09:27;7.45;;;0.95;;
10100;SDS011;5090;51.258;4.436;2023-09-19T13:11:56;8.63;;;0.90;;
10100;SDS011;5090;51.258;4.436;2023-09-19T13:14:25;10.18;;;1.10;;
10100;SDS011;5090;51.258;4.436;2023-09-19T13:16:53;10.98;;;1.37;;
10100;SDS011;5090;51.258;4.436;2023-09-19T13:21:55;6.75;;;1.80;;
10100;SDS011;5090;51.258;4.436;2023-09-19T13:24:24;9.38;;;1.30;;
10100;SDS011;5090;51.258;4.436;2023-09-19T13:26:51;3.65;;;1.00;;
10100;SDS011;5090;51.258;4.436;2023-09-19T13:29:20;4.47;;;1.10;;
10100;SDS011;5090;51.258;4.436;2023-09-19T13:31:49;5.65;;;1.20;;
10100;SDS011;5090;51.258;4.436;2023-09-19T13:34:17;2.08;;;0.73;;
10100;SDS011;5090;51.258;4.436;2023-09-19T13:36:46;2.75;;;0.93;;
10100;SDS011;5090;51.258;4.436;2023-09-19T13:39:16;6.10;;;1.40;;
10100;SDS011;5090;51.258;4.436;2023-09-19T13:41:45;6.72;;;1.10;;
10100;SDS011;5090;51.258;4.436;2023-09-19T13:44:13;4.85;;;0.93;;
10100;SDS011;5090;51.258;4.436;2023-09-19T13:46:41;3.87;;;1.15;;
10100;SDS011;5090;51.258;4.436;2023-09-19T13:49:09;6.20;;;1.12;;
10100;SDS011;5090;51.258;4.436;2023-09-19T13:51:38;7.07;;;1.12;;
10100;SDS011;5090;51.258;4.436;2023-09-19T13:54:06;4.22;;;1.40;;
10100;SDS011;5090;51.258;4.436;2023-09-19T13:56:34;4.22;;;1.05;;
10100;SDS011;5090;51.258;4.436;2023-09-19T13:59:02;6.18;;;1.20;;
10100;SDS011;5090;51.258;4.436;2023-09-19T14:01:30;6.30;;;1.20;;
10100;SDS011;5090;51.258;4.436;2023-09-19T14:03:59;4.50;;;1.12;;
10100;SDS011;5090;51.258;4.436;2023-09-19T14:06:27;7.45;;;1.65;;
10100;SDS011;5090;51.258;4.436;2023-09-19T14:08:55;5.15;;;1.45;;
10100;SDS011;5090;51.258;4.436;2023-09-19T14:11:23;11.57;;;5.30;;
10100;SDS011;5090;51.258;4.436;2023-09-19T14:13:52;4.43;;;1.75;;
10100;SDS011;5090;51.258;4.436;2023-09-19T14:16:20;7.72;;;1.70;;
10100;SDS011;5090;51.258;4.436;2023-09-19T14:18:48;8.80;;;1.50;;
10100;SDS011;5090;51.258;4.436;2023-09-19T14:21:16;3.62;;;1.58;;
10100;SDS011;5090;51.258;4.436;2023-09-19T14:23:45;2.08;;;1.12;;
10100;SDS011;5090;51.258;4.436;2023-09-19T14:26:13;6.35;;;1.17;;
10100;SDS011;5090;51.258;4.436;2023-09-19T14:28:42;3.60;;;0.95;;
10100;SDS011;5090;51.258;4.436;2023-09-19T14:31:11;2.90;;;1.10;;
10100;SDS011;5090;51.258;4.436;2023-09-19T14:33:39;3.87;;;1.20;;
10100;SDS011;5090;51.258;4.436;2023-09-19T14:36:08;6.47;;;1.10;;
10100;SDS011;5090;51.258;4.436;2023-09-19T14:38:36;6.53;;;1.45;;
10100;SDS011;5090;51.258;4.436;2023-09-19T14:41:05;3.92;;;1.17;;
10100;SDS011;5090;51.258;4.436;2023-09-19T14:43:32;5.43;;;0.82;;
10100;SDS011;5090;51.258;4.436;2023-09-19T14:46:03;5.78;;;1.45;;
10100;SDS011;5090;51.258;4.436;2023-09-19T14:48:31;3.72;;;0.85;;
10100;SDS011;5090;51.258;4.436;2023-09-19T14:51:02;4.10;;;1.33;;
10100;SDS011;5090;51.258;4.436;2023-09-19T14:53:30;4.85;;;1.17;;
10100;SDS011;5090;51.258;4.436;2023-09-19T14:56:00;4.68;;;1.05;;
10100;SDS011;5090;51.258;4.436;2023-09-19T14:58:30;5.97;;;1.60;;
10100;SDS011;5090;51.258;4.436;2023-09-19T15:01:05;6.25;;;1.42;;
10100;SDS011;5090;51.258;4.436;2023-09-19T15:03:33;8.93;;;1.55;;
10100;SDS011;5090;51.258;4.436;2023-09-19T15:06:01;5.22;;;1.58;;
10100;SDS011;5090;51.258;4.436;2023-09-19T15:08:29;4.43;;;1.37;;
10100;SDS011;5090;51.258;4.436;2023-09-19T15:10:57;4.30;;;1.42;;
10100;SDS011;5090;51.258;4.436;2023-09-19T15:13:25;6.18;;;1.73;;
10100;SDS011;5090;51.258;4.436;2023-09-19T15:16:01;5.95;;;1.60;;
10100;SDS011;5090;51.258;4.436;2023-09-19T15:18:29;5.18;;;1.60;;
10100;SDS011;5090;51.258;4.436;2023-09-19T15:21:00;13.07;;;1.58;;
10100;SDS011;5090;51.258;4.436;2023-09-19T15:23:26;7.00;;;2.03;;
10100;SDS011;5090;51.258;4.436;2023-09-19T15:25:54;5.12;;;1.58;;
10100;SDS011;5090;51.258;4.436;2023-09-19T15:28:22;5.78;;;1.50;;
10100;SDS011;5090;51.258;4.436;2023-09-19T15:30:50;6.07;;;1.50;;
10100;SDS011;5090;51.258;4.436;2023-09-19T15:33:18;5.57;;;1.35;;
10100;SDS011;5090;51.258;4.436;2023-09-19T15:35:47;6.68;;;1.45;;
10100;SDS011;5090;51.258;4.436;2023-09-19T15:38:16;7.62;;;1.62;;
10100;SDS011;5090;51.258;4.436;2023-09-19T15:40:46;5.07;;;1.27;;
10100;SDS011;5090;51.258;4.436;2023-09-19T15:43:14;7.03;;;1.55;;
10100;SDS011;5090;51.258;4.436;2023-09-19T15:45:42;5.43;;;1.27;;